sensor_id;sensor_type;location;lat;lon;timestamp;pressure;altitude;pressure_sealevel;temperature;humidity
14269;BME280;7218;51.480;7.006;2023-12-20T00:00:25;74886.34;;;-143.00;30.62
14269;BME280;7218;51.480;7.006;2023-12-20T00:02:52;74884.34;;;-143.00;30.80
14269;BME280;7218;51.480;7.006;2023-12-20T00:05:18;74952.22;;;-143.00;31.18
14269;BME280;7218;51.480;7.006;2023-12-20T00:07:45;74944.22;;;-143.00;31.01
14269;BME280;7218;51.480;7.006;2023-12-20T00:10:12;75113.88;;;-143.00;32.23
14269;BME280;7218;51.480;7.006;2023-12-20T00:12:39;74888.34;;;-143.00;30.64
14269;BME280;7218;51.480;7.006;2023-12-20T00:15:08;74920.28;;;-143.00;30.83
14269;BME280;7218;51.480;7.006;2023-12-20T00:17:34;75115.88;;;-143.00;32.03
14269;BME280;7218;51.480;7.006;2023-12-20T00:20:01;75018.06;;;-143.00;31.14
14269;BME280;7218;51.480;7.006;2023-12-20T00:22:28;75026.06;;;-143.00;31.18
14269;BME280;7218;51.480;7.006;2023-12-20T00:24:54;74946.22;;;-143.00;30.65
14269;BME280;7218;51.480;7.006;2023-12-20T00:27:21;75040.03;;;-143.00;30.92
14269;BME280;7218;51.480;7.006;2023-12-20T00:29:48;74992.13;;;-143.00;30.87
14269;BME280;7218;51.480;7.006;2023-12-20T00:32:16;75127.84;;;-143.00;31.72
14269;BME280;7218;51.480;7.006;2023-12-20T00:34:43;75123.84;;;-143.00;31.70
14269;BME280;7218;51.480;7.006;2023-12-20T00:37:09;75127.84;;;-143.00;31.33
14269;BME280;7218;51.480;7.006;2023-12-20T00:39:36;75195.69;;;-143.00;31.59
14269;BME280;7218;51.480;7.006;2023-12-20T00:42:03;75131.81;;;-143.00;31.31
14269;BME280;7218;51.480;7.006;2023-12-20T00:44:29;75000.09;;;-143.00;30.60
14269;BME280;7218;51.480;7.006;2023-12-20T00:46:56;75111.88;;;-143.00;31.23
14269;BME280;7218;51.480;7.006;2023-12-20T00:49:24;75016.06;;;-143.00;30.64
14269;BME280;7218;51.480;7.006;2023-12-20T00:51:50;75191.72;;;-143.00;31.52
14269;BME280;7218;51.480;7.006;2023-12-20T00:54:18;75004.09;;;-143.00;30.28
14269;BME280;7218;51.480;7.006;2023-12-20T00:56:44;75016.06;;;-143.00;30.35
14269;BME280;7218;51.480;7.006;2023-12-20T00:59:10;75191.72;;;-143.00;31.52
14269;BME280;7218;51.480;7.006;2023-12-20T01:01:37;75016.06;;;-143.00;30.13
14269;BME280;7218;51.480;7.006;2023-12-20T01:04:04;75101.91;;;-143.00;30.49
14269;BME280;7218;51.480;7.006;2023-12-20T01:06:31;74966.19;;;-143.00;30.02
14269;BME280;7218;51.480;7.006;2023-12-20T01:08:58;75030.03;;;-143.00;30.12
14269;BME280;7218;51.480;7.006;2023-12-20T01:11:24;75147.78;;;-143.00;30.66
14269;BME280;7218;51.480;7.006;2023-12-20T01:13:51;75063.97;;;-143.00;30.15
14269;BME280;7218;51.480;7.006;2023-12-20T01:16:17;75135.81;;;-143.00;30.57
14269;BME280;7218;51.480;7.006;2023-12-20T01:18:44;75141.81;;;-143.00;30.72
14269;BME280;7218;51.480;7.006;2023-12-20T01:21:10;75177.72;;;-143.00;30.98
14269;BME280;7218;51.480;7.006;2023-12-20T01:23:38;75175.75;;;-143.00;30.95
14269;BME280;7218;51.480;7.006;2023-12-20T01:26:05;75111.88;;;-143.00;30.38
14269;BME280;7218;51.480;7.006;2023-12-20T01:28:31;75059.97;;;-143.00;29.69
14269;BME280;7218;51.480;7.006;2023-12-20T01:30:58;75199.69;;;-143.00;30.77
14269;BME280;7218;51.480;7.006;2023-12-20T01:33:24;75131.81;;;-143.00;30.24
14269;BME280;7218;51.480;7.006;2023-12-20T01:35:51;75295.50;;;-143.00;31.21
14269;BME280;7218;51.480;7.006;2023-12-20T01:38:17;75239.59;;;-143.00;31.00
14269;BME280;7218;51.480;7.006;2023-12-20T01:40:46;75002.09;;;-143.00;29.69
14269;BME280;7218;51.480;7.006;2023-12-20T01:43:13;75277.53;;;-143.00;30.91
14269;BME280;7218;51.480;7.006;2023-12-20T01:45:39;75101.91;;;-143.00;29.84
14269;BME280;7218;51.480;7.006;2023-12-20T01:48:08;75113.88;;;-143.00;30.30
14269;BME280;7218;51.480;7.006;2023-12-20T01:50:36;75125.84;;;-143.00;30.31
14269;BME280;7218;51.480;7.006;2023-12-20T01:53:04;75147.78;;;-143.00;30.28
14269;BME280;7218;51.480;7.006;2023-12-20T01:55:33;75036.03;;;-143.00;29.60
14269;BME280;7218;51.480;7.006;2023-12-20T01:58:03;75024.06;;;-143.00;29.48
14269;BME280;7218;51.480;7.006;2023-12-20T02:00:30;75145.81;;;-143.00;30.18
14269;BME280;7218;51.480;7.006;2023-12-20T02:03:00;75163.75;;;-143.00;30.21
14269;BME280;7218;51.480;7.006;2023-12-20T02:05:27;75139.81;;;-143.00;29.76
14269;BME280;7218;51.480;7.006;2023-12-20T02:07:54;75111.88;;;-143.00;29.66
14269;BME280;7218;51.480;7.006;2023-12-20T02:10:20;75151.78;;;-143.00;30.02
14269;BME280;7218;51.480;7.006;2023-12-20T02:12:47;75083.94;;;-143.00;29.30
14269;BME280;7218;51.480;7.006;2023-12-20T02:15:15;75131.81;;;-143.00;30.18
14269;BME280;7218;51.480;7.006;2023-12-20T02:17:42;75215.66;;;-143.00;30.50
14269;BME280;7218;51.480;7.006;2023-12-20T02:20:09;75151.78;;;-143.00;30.17
14269;BME280;7218;51.480;7.006;2023-12-20T02:22:37;75195.69;;;-143.00;30.48
14269;BME280;7218;51.480;7.006;2023-12-20T02:25:04;75161.78;;;-143.00;30.08
14269;BME280;7218;51.480;7.006;2023-12-20T02:27:30;75141.81;;;-143.00;30.08
14269;BME280;7218;51.480;7.006;2023-12-20T02:29:57;75245.59;;;-143.00;30.74
14269;BME280;7218;51.480;7.006;2023-12-20T02:32:24;75269.53;;;-143.00;30.94
14269;BME280;7218;51.480;7.006;2023-12-20T02:34:52;75457.16;;;-143.00;31.90
14269;BME280;7218;51.480;7.006;2023-12-20T02:37:18;75459.16;;;-143.00;32.16
14269;BME280;7218;51.480;7.006;2023-12-20T02:39:46;75325.44;;;-143.00;31.32
14269;BME280;7218;51.480;7.006;2023-12-20T02:42:12;75231.63;;;-143.00;30.67
14269;BME280;7218;51.480;7.006;2023-12-20T02:44:39;75225.63;;;-143.00;30.33
14269;BME280;7218;51.480;7.006;2023-12-20T02:47:05;75263.56;;;-143.00;30.69
14269;BME280;7218;51.480;7.006;2023-12-20T02:49:32;75383.31;;;-143.00;31.48
14269;BME280;7218;51.480;7.006;2023-12-20T02:51:58;75383.31;;;-143.00;31.46
14269;BME280;7218;51.480;7.006;2023-12-20T02:54:25;75255.56;;;-143.00;30.88
14269;BME280;7218;51.480;7.006;2023-12-20T02:56:53;75329.44;;;-143.00;31.39
14269;BME280;7218;51.480;7.006;2023-12-20T02:59:19;75327.44;;;-143.00;30.88
14269;BME280;7218;51.480;7.006;2023-12-20T03:01:46;75219.66;;;-143.00;30.43
14269;BME280;7218;51.480;7.006;2023-12-20T03:04:12;75341.41;;;-143.00;31.21
14269;BME280;7218;51.480;7.006;2023-12-20T03:06:39;75213.66;;;-143.00;30.22
14269;BME280;7218;51.480;7.006;2023-12-20T03:09:05;75666.75;;;-143.00;33.43
14269;BME280;7218;51.480;7.006;2023-12-20T03:11:32;75539.00;;;-143.00;32.62
14269;BME280;7218;51.480;7.006;2023-12-20T03:14:00;75347.38;;;-143.00;31.54
14269;BME280;7218;51.480;7.006;2023-12-20T03:16:27;75363.34;;;-143.00;31.22
14269;BME280;7218;51.480;7.006;2023-12-20T03:18:53;75349.38;;;-143.00;31.18
14269;BME280;7218;51.480;7.006;2023-12-20T03:21:19;75383.31;;;-143.00;31.35
14269;BME280;7218;51.480;7.006;2023-12-20T03:23:46;75281.53;;;-143.00;30.64
14269;BME280;7218;51.480;7.006;2023-12-20T03:26:13;75335.41;;;-143.00;31.05
14269;BME280;7218;51.480;7.006;2023-12-20T03:28:39;75367.34;;;-143.00;31.24
14269;BME280;7218;51.480;7.006;2023-12-20T03:31:07;75245.59;;;-143.00;30.64
14269;BME280;7218;51.480;7.006;2023-12-20T03:33:33;75455.16;;;-143.00;31.86
14269;BME280;7218;51.480;7.006;2023-12-20T03:36:00;75263.56;;;-143.00;30.67
14269;BME280;7218;51.480;7.006;2023-12-20T03:38:26;75339.41;;;-143.00;31.08
14269;BME280;7218;51.480;7.006;2023-12-20T03:40:53;75558.97;;;-143.00;32.47
14269;BME280;7218;51.480;7.006;2023-12-20T03:43:19;75277.53;;;-143.00;30.52
14269;BME280;7218;51.480;7.006;2023-12-20T03:45:46;75407.28;;;-143.00;31.29
14269;BME280;7218;51.480;7.006;2023-12-20T03:48:14;75333.41;;;-143.00;31.05
14269;BME280;7218;51.480;7.006;2023-12-20T03:50:40;75401.28;;;-143.00;31.36
14269;BME280;7218;51.480;7.006;2023-12-20T03:53:07;75293.50;;;-143.00;30.60
14269;BME280;7218;51.480;7.006;2023-12-20T03:55:33;75363.34;;;-143.00;30.98
14269;BME280;7218;51.480;7.006;2023-12-20T03:58:00;75463.16;;;-143.00;31.58
14269;BME280;7218;51.480;7.006;2023-12-20T04:00:26;75413.25;;;-143.00;31.25
14269;BME280;7218;51.480;7.006;2023-12-20T04:02:59;75535.00;;;-143.00;32.36
14269;BME280;7218;51.480;7.006;2023-12-20T04:05:26;75451.19;;;-143.00;32.21
14269;BME280;7218;51.480;7.006;2023-12-20T04:07:53;75541.00;;;-143.00;32.29
14269;BME280;7218;51.480;7.006;2023-12-20T04:10:19;75493.09;;;-143.00;32.18
14269;BME280;7218;51.480;7.006;2023-12-20T04:12:46;75459.16;;;-143.00;31.79
14269;BME280;7218;51.480;7.006;2023-12-20T04:15:13;75507.06;;;-143.00;32.03
14269;BME280;7218;51.480;7.006;2023-12-20T04:17:39;75383.31;;;-143.00;31.44
14269;BME280;7218;51.480;7.006;2023-12-20T04:20:07;75477.13;;;-143.00;32.03
14269;BME280;7218;51.480;7.006;2023-12-20T04:22:35;75393.28;;;-143.00;31.75
14269;BME280;7218;51.480;7.006;2023-12-20T04:25:01;75443.19;;;-143.00;31.57
14269;BME280;7218;51.480;7.006;2023-12-20T04:27:28;75521.03;;;-143.00;32.22
14269;BME280;7218;51.480;7.006;2023-12-20T04:29:55;75459.16;;;-143.00;32.04
14269;BME280;7218;51.480;7.006;2023-12-20T04:32:21;75586.91;;;-143.00;32.80
14269;BME280;7218;51.480;7.006;2023-12-20T04:34:48;75447.19;;;-143.00;31.67
14269;BME280;7218;51.480;7.006;2023-12-20T04:37:14;75754.59;;;-143.00;33.90
14269;BME280;7218;51.480;7.006;2023-12-20T04:39:42;75471.13;;;-143.00;32.15
14269;BME280;7218;51.480;7.006;2023-12-20T04:42:08;75624.84;;;-143.00;33.25
14269;BME280;7218;51.480;7.006;2023-12-20T04:44:35;75481.13;;;-143.00;32.35
14269;BME280;7218;51.480;7.006;2023-12-20T04:47:02;75630.81;;;-143.00;33.27
14269;BME280;7218;51.480;7.006;2023-12-20T04:49:28;75351.38;;;-143.00;31.14
14269;BME280;7218;51.480;7.006;2023-12-20T04:51:54;75485.13;;;-143.00;31.54
14269;BME280;7218;51.480;7.006;2023-12-20T04:54:21;75487.09;;;-143.00;32.14
14269;BME280;7218;51.480;7.006;2023-12-20T04:56:49;75483.13;;;-143.00;32.55
14269;BME280;7218;51.480;7.006;2023-12-20T04:59:16;75650.78;;;-143.00;33.11
14269;BME280;7218;51.480;7.006;2023-12-20T05:01:42;75640.81;;;-143.00;33.43
14269;BME280;7218;51.480;7.006;2023-12-20T05:04:08;75670.75;;;-143.00;33.44
14269;BME280;7218;51.480;7.006;2023-12-20T05:06:35;75473.13;;;-143.00;32.16
14269;BME280;7218;51.480;7.006;2023-12-20T05:09:02;75415.25;;;-143.00;31.42
14269;BME280;7218;51.480;7.006;2023-12-20T05:11:28;75584.91;;;-143.00;32.52
14269;BME280;7218;51.480;7.006;2023-12-20T05:13:56;75529.03;;;-143.00;32.52
14269;BME280;7218;51.480;7.006;2023-12-20T05:16:22;75572.94;;;-143.00;32.60
14269;BME280;7218;51.480;7.006;2023-12-20T05:18:49;75634.81;;;-143.00;33.18
14269;BME280;7218;51.480;7.006;2023-12-20T05:21:17;75644.81;;;-143.00;33.37
14269;BME280;7218;51.480;7.006;2023-12-20T05:23:44;75720.66;;;-143.00;33.83
14269;BME280;7218;51.480;7.006;2023-12-20T05:26:10;75550.97;;;-143.00;32.29
14269;BME280;7218;51.480;7.006;2023-12-20T05:28:37;75586.91;;;-143.00;32.88
14269;BME280;7218;51.480;7.006;2023-12-20T05:31:04;75485.13;;;-143.00;32.21
14269;BME280;7218;51.480;7.006;2023-12-20T05:33:32;75427.22;;;-143.00;31.65
14269;BME280;7218;51.480;7.006;2023-12-20T05:35:58;75467.16;;;-143.00;31.67
14269;BME280;7218;51.480;7.006;2023-12-20T05:38:25;75576.94;;;-143.00;32.42
14269;BME280;7218;51.480;7.006;2023-12-20T05:40:51;75439.19;;;-143.00;31.79
14269;BME280;7218;51.480;7.006;2023-12-20T05:43:18;75582.91;;;-143.00;32.61
14269;BME280;7218;51.480;7.006;2023-12-20T05:45:45;75588.91;;;-143.00;32.80
14269;BME280;7218;51.480;7.006;2023-12-20T05:48:12;75449.19;;;-143.00;32.18
14269;BME280;7218;51.480;7.006;2023-12-20T05:50:39;75618.84;;;-143.00;33.09
14269;BME280;7218;51.480;7.006;2023-12-20T05:53:05;75455.16;;;-143.00;31.78
14269;BME280;7218;51.480;7.006;2023-12-20T05:55:32;75539.00;;;-143.00;32.18
14269;BME280;7218;51.480;7.006;2023-12-20T05:57:58;75628.84;;;-143.00;33.17
14269;BME280;7218;51.480;7.006;2023-12-20T06:00:25;75469.16;;;-143.00;32.07
14269;BME280;7218;51.480;7.006;2023-12-20T06:02:51;75590.91;;;-143.00;32.61
14269;BME280;7218;51.480;7.006;2023-12-20T06:05:19;75477.13;;;-143.00;31.79
14269;BME280;7218;51.480;7.006;2023-12-20T06:07:45;75626.84;;;-143.00;33.32
14269;BME280;7218;51.480;7.006;2023-12-20T06:10:13;75521.03;;;-143.00;32.51
14269;BME280;7218;51.480;7.006;2023-12-20T06:12:40;75716.66;;;-143.00;33.84
14269;BME280;7218;51.480;7.006;2023-12-20T06:15:07;75590.91;;;-143.00;33.33
14269;BME280;7218;51.480;7.006;2023-12-20T06:17:33;75483.13;;;-143.00;32.05
14269;BME280;7218;51.480;7.006;2023-12-20T06:20:00;75644.81;;;-143.00;33.11
14269;BME280;7218;51.480;7.006;2023-12-20T06:22:29;75752.59;;;-143.00;34.64
14269;BME280;7218;51.480;7.006;2023-12-20T06:24:55;75626.84;;;-143.00;33.27
14269;BME280;7218;51.480;7.006;2023-12-20T06:27:22;75708.69;;;-143.00;33.67
14269;BME280;7218;51.480;7.006;2023-12-20T06:29:48;75523.03;;;-143.00;32.29
14269;BME280;7218;51.480;7.006;2023-12-20T06:32:14;75299.50;;;-143.00;30.80
14269;BME280;7218;51.480;7.006;2023-12-20T06:34:41;75493.09;;;-143.00;32.01
14269;BME280;7218;51.480;7.006;2023-12-20T06:37:07;75718.66;;;-143.00;33.97
14269;BME280;7218;51.480;7.006;2023-12-20T06:39:35;75457.16;;;-143.00;32.24
14269;BME280;7218;51.480;7.006;2023-12-20T06:42:02;75535.00;;;-143.00;32.65
14269;BME280;7218;51.480;7.006;2023-12-20T06:44:29;75580.94;;;-143.00;32.52
14269;BME280;7218;51.480;7.006;2023-12-20T06:46:55;75654.78;;;-143.00;33.65
14269;BME280;7218;51.480;7.006;2023-12-20T06:49:22;75527.03;;;-143.00;32.65
14269;BME280;7218;51.480;7.006;2023-12-20T06:51:48;75748.59;;;-143.00;34.15
14269;BME280;7218;51.480;7.006;2023-12-20T06:54:15;75798.50;;;-143.00;34.74
14269;BME280;7218;51.480;7.006;2023-12-20T06:56:42;75578.94;;;-143.00;33.34
14269;BME280;7218;51.480;7.006;2023-12-20T06:59:09;75720.66;;;-143.00;33.92
14269;BME280;7218;51.480;7.006;2023-12-20T07:01:35;75722.66;;;-143.00;34.05
14269;BME280;7218;51.480;7.006;2023-12-20T07:04:03;75578.94;;;-143.00;32.80
14269;BME280;7218;51.480;7.006;2023-12-20T07:06:29;75467.16;;;-143.00;31.88
14269;BME280;7218;51.480;7.006;2023-12-20T07:08:56;75363.34;;;-143.00;31.10
14269;BME280;7218;51.480;7.006;2023-12-20T07:11:22;75407.28;;;-143.00;31.42
14269;BME280;7218;51.480;7.006;2023-12-20T07:13:50;75574.94;;;-143.00;33.29
14269;BME280;7218;51.480;7.006;2023-12-20T07:16:17;75608.88;;;-143.00;32.91
14269;BME280;7218;51.480;7.006;2023-12-20T07:18:43;75596.88;;;-143.00;32.59
14269;BME280;7218;51.480;7.006;2023-12-20T07:21:10;75650.78;;;-143.00;33.11
14269;BME280;7218;51.480;7.006;2023-12-20T07:23:36;75531.03;;;-143.00;32.42
14269;BME280;7218;51.480;7.006;2023-12-20T07:26:03;75562.97;;;-143.00;32.75
14269;BME280;7218;51.480;7.006;2023-12-20T07:28:30;75656.78;;;-143.00;33.19
14269;BME280;7218;51.480;7.006;2023-12-20T07:30:58;75485.13;;;-143.00;32.54
14269;BME280;7218;51.480;7.006;2023-12-20T07:33:24;75590.91;;;-143.00;32.93
14269;BME280;7218;51.480;7.006;2023-12-20T07:35:51;75612.88;;;-143.00;33.29
14269;BME280;7218;51.480;7.006;2023-12-20T07:38:17;75483.13;;;-143.00;31.98
14269;BME280;7218;51.480;7.006;2023-12-20T07:40:44;75419.25;;;-143.00;31.49
14269;BME280;7218;51.480;7.006;2023-12-20T07:43:10;75648.78;;;-143.00;33.32
14269;BME280;7218;51.480;7.006;2023-12-20T07:45:37;75630.81;;;-143.00;33.42
14269;BME280;7218;51.480;7.006;2023-12-20T07:48:06;75718.66;;;-143.00;34.06
14269;BME280;7218;51.480;7.006;2023-12-20T07:50:33;75626.84;;;-143.00;33.15
14269;BME280;7218;51.480;7.006;2023-12-20T07:52:59;75822.47;;;-143.00;34.42
14269;BME280;7218;51.480;7.006;2023-12-20T07:55:26;75708.69;;;-143.00;34.08
14269;BME280;7218;51.480;7.006;2023-12-20T07:57:52;75447.19;;;-143.00;32.01
14269;BME280;7218;51.480;7.006;2023-12-20T08:00:19;75586.91;;;-143.00;32.75
14269;BME280;7218;51.480;7.006;2023-12-20T08:02:45;75543.00;;;-143.00;32.28
14269;BME280;7218;51.480;7.006;2023-12-20T08:05:13;75487.09;;;-143.00;32.45
14269;BME280;7218;51.480;7.006;2023-12-20T08:07:40;75531.03;;;-143.00;32.23
14269;BME280;7218;51.480;7.006;2023-12-20T08:10:07;75612.88;;;-143.00;33.30
14269;BME280;7218;51.480;7.006;2023-12-20T08:12:34;75590.91;;;-143.00;32.88
14269;BME280;7218;51.480;7.006;2023-12-20T08:15:01;75465.16;;;-143.00;31.98
14269;BME280;7218;51.480;7.006;2023-12-20T08:17:29;75566.94;;;-143.00;32.26
14269;BME280;7218;51.480;7.006;2023-12-20T08:19:55;75588.91;;;-143.00;32.80
14269;BME280;7218;51.480;7.006;2023-12-20T08:22:23;75513.06;;;-143.00;32.58
14269;BME280;7218;51.480;7.006;2023-12-20T08:24:50;75604.88;;;-143.00;32.96
14269;BME280;7218;51.480;7.006;2023-12-20T08:27:17;75672.75;;;-143.00;33.55
14269;BME280;7218;51.480;7.006;2023-12-20T08:29:43;75654.78;;;-143.00;33.29
14269;BME280;7218;51.480;7.006;2023-12-20T08:32:10;75772.56;;;-143.00;33.99
14269;BME280;7218;51.480;7.006;2023-12-20T08:34:36;75672.75;;;-143.00;33.35
14269;BME280;7218;51.480;7.006;2023-12-20T08:37:03;75852.41;;;-143.00;35.00
14269;BME280;7218;51.480;7.006;2023-12-20T08:39:31;75712.66;;;-143.00;33.87
14269;BME280;7218;51.480;7.006;2023-12-20T08:41:58;75902.31;;;-143.00;35.52
14269;BME280;7218;51.480;7.006;2023-12-20T08:44:25;75890.31;;;-143.00;34.97
14269;BME280;7218;51.480;7.006;2023-12-20T08:46:51;75828.44;;;-143.00;34.85
14269;BME280;7218;51.480;7.006;2023-12-20T08:49:18;75732.63;;;-143.00;33.86
14269;BME280;7218;51.480;7.006;2023-12-20T08:51:44;75712.66;;;-143.00;33.71
14269;BME280;7218;51.480;7.006;2023-12-20T08:54:11;75726.63;;;-143.00;34.39
14269;BME280;7218;51.480;7.006;2023-12-20T08:56:39;75674.75;;;-143.00;34.00
14269;BME280;7218;51.480;7.006;2023-12-20T08:59:06;75970.19;;;-143.00;36.31
14269;BME280;7218;51.480;7.006;2023-12-20T09:01:32;75726.63;;;-143.00;33.75
14269;BME280;7218;51.480;7.006;2023-12-20T09:03:59;75862.38;;;-143.00;35.17
14269;BME280;7218;51.480;7.006;2023-12-20T09:06:25;75646.78;;;-143.00;33.01
14269;BME280;7218;51.480;7.006;2023-12-20T09:08:52;75760.56;;;-143.00;34.10
14269;BME280;7218;51.480;7.006;2023-12-20T09:11:18;75876.34;;;-143.00;34.73
14269;BME280;7218;51.480;7.006;2023-12-20T09:13:46;75720.66;;;-143.00;34.22
14269;BME280;7218;51.480;7.006;2023-12-20T09:16:12;75487.09;;;-143.00;31.67
14269;BME280;7218;51.480;7.006;2023-12-20T09:18:41;75620.84;;;-143.00;32.71
14269;BME280;7218;51.480;7.006;2023-12-20T09:21:07;75483.13;;;-143.00;31.79
14269;BME280;7218;51.480;7.006;2023-12-20T09:23:34;75483.13;;;-143.00;31.81
14269;BME280;7218;51.480;7.006;2023-12-20T09:26:01;75415.25;;;-143.00;31.23
14269;BME280;7218;51.480;7.006;2023-12-20T09:28:28;75429.22;;;-143.00;31.27
14269;BME280;7218;51.480;7.006;2023-12-20T09:30:56;75251.59;;;-143.00;30.33
14269;BME280;7218;51.480;7.006;2023-12-20T09:33:22;75491.09;;;-143.00;31.80
14269;BME280;7218;51.480;7.006;2023-12-20T09:35:50;75479.13;;;-143.00;31.53
14269;BME280;7218;51.480;7.006;2023-12-20T09:38:16;75728.63;;;-143.00;33.25
14269;BME280;7218;51.480;7.006;2023-12-20T09:40:43;75503.06;;;-143.00;31.96
14269;BME280;7218;51.480;7.006;2023-12-20T09:43:11;75475.13;;;-143.00;31.92
14269;BME280;7218;51.480;7.006;2023-12-20T09:45:40;75656.78;;;-143.00;33.32
14269;BME280;7218;51.480;7.006;2023-12-20T09:48:10;75325.44;;;-143.00;30.72
14269;BME280;7218;51.480;7.006;2023-12-20T09:50:37;75211.66;;;-143.00;29.92
14269;BME280;7218;51.480;7.006;2023-12-20T09:53:04;75379.31;;;-143.00;31.31
14269;BME280;7218;51.480;7.006;2023-12-20T09:55:31;75654.78;;;-143.00;33.02
14269;BME280;7218;51.480;7.006;2023-12-20T09:57:59;75507.06;;;-143.00;31.98
14269;BME280;7218;51.480;7.006;2023-12-20T10:00:26;75487.09;;;-143.00;31.83
14269;BME280;7218;51.480;7.006;2023-12-20T10:02:57;75471.13;;;-143.00;31.69
14269;BME280;7218;51.480;7.006;2023-12-20T10:05:27;75521.03;;;-143.00;32.71
14269;BME280;7218;51.480;7.006;2023-12-20T10:07:54;75547.00;;;-143.00;32.01
14269;BME280;7218;51.480;7.006;2023-12-20T10:10:22;75371.34;;;-143.00;31.13
14269;BME280;7218;51.480;7.006;2023-12-20T10:13:01;75407.28;;;-143.00;31.56
14269;BME280;7218;51.480;7.006;2023-12-20T10:15:28;75481.13;;;-143.00;31.71
14269;BME280;7218;51.480;7.006;2023-12-20T10:17:56;75471.13;;;-143.00;31.94
14269;BME280;7218;51.480;7.006;2023-12-20T10:20:22;75662.75;;;-143.00;33.27
14269;BME280;7218;51.480;7.006;2023-12-20T10:22:51;75674.75;;;-143.00;33.56
14269;BME280;7218;51.480;7.006;2023-12-20T10:25:18;75600.88;;;-143.00;33.15
14269;BME280;7218;51.480;7.006;2023-12-20T10:27:45;75562.97;;;-143.00;32.65
14269;BME280;7218;51.480;7.006;2023-12-20T10:30:12;75405.28;;;-143.00;31.74
14269;BME280;7218;51.480;7.006;2023-12-20T10:32:39;75381.31;;;-143.00;31.51
14269;BME280;7218;51.480;7.006;2023-12-20T10:35:08;75487.09;;;-143.00;32.03
14269;BME280;7218;51.480;7.006;2023-12-20T10:37:35;75379.31;;;-143.00;31.88
14269;BME280;7218;51.480;7.006;2023-12-20T10:40:04;75183.72;;;-143.00;30.39
14269;BME280;7218;51.480;7.006;2023-12-20T10:42:31;75363.34;;;-143.00;31.37
14269;BME280;7218;51.480;7.006;2023-12-20T10:44:59;75499.09;;;-143.00;32.26
14269;BME280;7218;51.480;7.006;2023-12-20T10:47:26;75541.00;;;-143.00;32.24
14269;BME280;7218;51.480;7.006;2023-12-20T10:49:54;75525.03;;;-143.00;32.71
14269;BME280;7218;51.480;7.006;2023-12-20T10:52:23;75267.56;;;-143.00;31.15
14269;BME280;7218;51.480;7.006;2023-12-20T10:54:50;75363.34;;;-143.00;31.52
14269;BME280;7218;51.480;7.006;2023-12-20T10:57:18;75227.63;;;-143.00;30.76
14269;BME280;7218;51.480;7.006;2023-12-20T10:59:45;75315.44;;;-143.00;31.18
14269;BME280;7218;51.480;7.006;2023-12-20T11:02:13;75473.13;;;-143.00;32.24
14269;BME280;7218;51.480;7.006;2023-12-20T11:04:44;75313.47;;;-143.00;31.05
14269;BME280;7218;51.480;7.006;2023-12-20T11:07:19;75409.25;;;-143.00;31.70
14269;BME280;7218;51.480;7.006;2023-12-20T11:09:55;75317.44;;;-143.00;31.25
14269;BME280;7218;51.480;7.006;2023-12-20T11:12:34;75383.31;;;-143.00;31.10
14269;BME280;7218;51.480;7.006;2023-12-20T11:15:03;75431.22;;;-143.00;31.93
14269;BME280;7218;51.480;7.006;2023-12-20T11:17:31;75417.25;;;-143.00;31.96
14269;BME280;7218;51.480;7.006;2023-12-20T11:20:07;75371.34;;;-143.00;31.78
14269;BME280;7218;51.480;7.006;2023-12-20T11:22:35;75481.13;;;-143.00;32.67
14269;BME280;7218;51.480;7.006;2023-12-20T11:25:04;75253.56;;;-143.00;31.10
14269;BME280;7218;51.480;7.006;2023-12-20T11:27:33;75375.34;;;-143.00;31.95
14269;BME280;7218;51.480;7.006;2023-12-20T11:29:59;75535.00;;;-143.00;32.70
14269;BME280;7218;51.480;7.006;2023-12-20T11:32:28;75562.97;;;-143.00;33.11
14269;BME280;7218;51.480;7.006;2023-12-20T11:34:55;75560.97;;;-143.00;33.28
14269;BME280;7218;51.480;7.006;2023-12-20T11:37:28;75223.63;;;-143.00;31.23
14269;BME280;7218;51.480;7.006;2023-12-20T11:39:56;75373.34;;;-143.00;31.90
14269;BME280;7218;51.480;7.006;2023-12-20T11:42:22;75325.44;;;-143.00;31.69
14269;BME280;7218;51.480;7.006;2023-12-20T11:44:50;75271.53;;;-143.00;31.35
14269;BME280;7218;51.480;7.006;2023-12-20T11:47:17;75351.38;;;-143.00;32.28
14269;BME280;7218;51.480;7.006;2023-12-20T11:49:47;75293.50;;;-143.00;31.53
14269;BME280;7218;51.480;7.006;2023-12-20T11:52:13;75537.00;;;-143.00;33.47
14269;BME280;7218;51.480;7.006;2023-12-20T11:54:40;75359.38;;;-143.00;31.99
14269;BME280;7218;51.480;7.006;2023-12-20T11:57:06;75303.47;;;-143.00;31.47
14269;BME280;7218;51.480;7.006;2023-12-20T11:59:33;75355.38;;;-143.00;31.83
14269;BME280;7218;51.480;7.006;2023-12-20T12:02:01;75283.53;;;-143.00;31.85
14269;BME280;7218;51.480;7.006;2023-12-20T12:04:28;75403.28;;;-143.00;32.66
14269;BME280;7218;51.480;7.006;2023-12-20T12:06:54;75377.31;;;-143.00;32.31
14269;BME280;7218;51.480;7.006;2023-12-20T12:09:21;75279.53;;;-143.00;31.72
14269;BME280;7218;51.480;7.006;2023-12-20T12:11:47;75423.22;;;-143.00;33.15
14269;BME280;7218;51.480;7.006;2023-12-20T12:14:14;75341.41;;;-143.00;32.74
14269;BME280;7218;51.480;7.006;2023-12-20T12:16:41;75407.28;;;-143.00;33.13
14269;BME280;7218;51.480;7.006;2023-12-20T12:19:20;75329.44;;;-143.00;32.55
14269;BME280;7218;51.480;7.006;2023-12-20T12:21:46;75251.59;;;-143.00;31.77
14269;BME280;7218;51.480;7.006;2023-12-20T12:24:13;75417.25;;;-143.00;32.92
14269;BME280;7218;51.480;7.006;2023-12-20T12:26:39;75291.50;;;-143.00;32.24
14269;BME280;7218;51.480;7.006;2023-12-20T12:29:07;75293.50;;;-143.00;32.27
14269;BME280;7218;51.480;7.006;2023-12-20T12:31:37;75349.38;;;-143.00;32.59
14269;BME280;7218;51.480;7.006;2023-12-20T12:34:03;75191.72;;;-143.00;31.36
14269;BME280;7218;51.480;7.006;2023-12-20T12:36:32;75395.28;;;-143.00;32.80
14269;BME280;7218;51.480;7.006;2023-12-20T12:38:58;75455.16;;;-143.00;32.88
14269;BME280;7218;51.480;7.006;2023-12-20T12:41:29;75431.22;;;-143.00;33.20
14269;BME280;7218;51.480;7.006;2023-12-20T12:43:55;75608.88;;;-143.00;33.96
14269;BME280;7218;51.480;7.006;2023-12-20T12:46:22;75305.47;;;-143.00;31.83
14269;BME280;7218;51.480;7.006;2023-12-20T12:48:48;75135.81;;;-143.00;30.78